createdAt,value
2022-09-29T00:00:27.116Z,1.05
2022-09-29T00:02:54.250Z,1.52
2022-09-29T00:05:21.994Z,1.25
2022-09-29T00:07:48.766Z,1.45
2022-09-29T00:10:15.609Z,1.80
2022-09-29T00:12:42.396Z,1.52
2022-09-29T00:15:09.521Z,1.77
2022-09-29T00:17:36.264Z,1.60
2022-09-29T00:20:03.504Z,1.98
2022-09-29T00:22:30.252Z,1.52
2022-09-29T00:24:57.027Z,1.67
2022-09-29T00:27:23.921Z,2.20
2022-09-29T00:29:50.767Z,1.70
2022-09-29T00:32:17.577Z,2.40
2022-09-29T00:34:44.607Z,2.28
2022-09-29T00:37:11.360Z,2.10
2022-09-29T00:39:38.292Z,1.63
2022-09-29T00:42:05.221Z,1.73
2022-09-29T00:45:04.278Z,1.42
2022-09-29T00:47:33.331Z,1.50
2022-09-29T00:50:12.466Z,1.90
2022-09-29T00:52:46.207Z,1.65
2022-09-29T00:55:23.039Z,2.05
2022-09-29T00:57:53.952Z,1.90
2022-09-29T01:00:20.941Z,2.13
2022-09-29T01:10:50.579Z,2.08
2022-09-29T01:13:18.784Z,1.73
2022-09-29T01:15:45.765Z,2.22
2022-09-29T01:18:12.742Z,1.90
2022-09-29T01:20:57.996Z,1.90
2022-09-29T01:23:30.794Z,1.65
2022-09-29T01:26:08.528Z,2.17
2022-09-29T01:29:27.663Z,2.35
2022-09-29T01:32:39.673Z,2.38
2022-09-29T01:35:14.579Z,2.22
2022-09-29T01:38:04.488Z,2.25
2022-09-29T01:40:55.410Z,2.53
2022-09-29T01:43:36.776Z,2.55
2022-09-29T01:46:25.197Z,2.47
2022-09-29T01:48:55.508Z,2.00
2022-09-29T01:51:30.841Z,1.40
2022-09-29T01:54:03.111Z,2.00
2022-09-29T01:56:39.065Z,2.17
2022-09-29T01:59:37.281Z,2.75
2022-09-29T02:02:11.692Z,2.15
2022-09-29T02:04:46.671Z,2.08
2022-09-29T02:07:37.138Z,2.20
2022-09-29T02:10:25.918Z,2.25
2022-09-29T02:12:56.984Z,1.77
2022-09-29T02:15:27.152Z,1.70
2022-09-29T02:17:57.752Z,1.92
2022-09-29T02:20:24.785Z,1.98
2022-09-29T02:22:51.540Z,1.90
2022-09-29T02:25:20.156Z,2.03
2022-09-29T02:27:48.338Z,2.63
2022-09-29T02:30:15.150Z,2.40
2022-09-29T02:32:41.972Z,3.03
2022-09-29T02:35:13.165Z,2.65
2022-09-29T02:38:02.474Z,1.90
2022-09-29T02:40:51.815Z,2.42
2022-09-29T02:43:37.648Z,2.20
2022-09-29T02:46:07.690Z,2.38
2022-09-29T02:48:37.286Z,2.72
2022-09-29T02:51:31.566Z,2.58
2022-09-29T02:54:10.320Z,2.45
2022-09-29T02:57:01.426Z,2.70
2022-09-29T02:59:58.737Z,2.38
2022-09-29T03:02:27.086Z,2.60
2022-09-29T03:04:54.182Z,2.50
2022-09-29T03:07:22.303Z,2.20
2022-09-29T03:09:49.234Z,2.30
2022-09-29T03:12:18.213Z,2.25
2022-09-29T03:14:45.128Z,3.33
2022-09-29T03:17:12.208Z,3.20
2022-09-29T03:19:39.155Z,3.13
2022-09-29T03:22:06.129Z,2.70
2022-09-29T03:24:33.207Z,2.70
2022-09-29T03:27:00.033Z,2.53
2022-09-29T03:29:26.927Z,2.85
2022-09-29T03:31:53.732Z,3.17
2022-09-29T03:34:20.545Z,2.63
2022-09-29T03:36:47.375Z,3.03
2022-09-29T03:39:14.148Z,2.90
2022-09-29T03:41:41.274Z,2.42
2022-09-29T03:44:08.105Z,3.00
2022-09-29T03:46:34.920Z,2.65
2022-09-29T03:49:01.920Z,2.53
2022-09-29T03:51:28.696Z,3.33
2022-09-29T03:53:55.513Z,3.80
2022-09-29T03:56:22.498Z,2.63
2022-09-29T03:58:50.288Z,2.30
2022-09-29T04:01:17.332Z,2.40
2022-09-29T04:03:44.199Z,2.38
2022-09-29T04:06:11.018Z,2.53
2022-09-29T04:08:37.893Z,2.20
2022-09-29T04:11:05.534Z,2.67
2022-09-29T04:13:33.081Z,2.50
2022-09-29T04:16:05.284Z,2.00
2022-09-29T04:18:32.660Z,2.60
2022-09-29T04:21:00.836Z,2.58
2022-09-29T04:23:29.671Z,2.40
2022-09-29T04:25:57.588Z,2.65
2022-09-29T04:28:25.443Z,2.30
2022-09-29T04:30:52.530Z,3.40
2022-09-29T04:33:19.416Z,3.92
2022-09-29T04:35:46.735Z,6.53
2022-09-29T04:38:13.554Z,6.47
2022-09-29T04:40:40.441Z,9.85
2022-09-29T04:43:07.563Z,6.97
2022-09-29T04:45:34.491Z,4.93
2022-09-29T04:48:01.586Z,4.95
2022-09-29T04:50:29.222Z,5.13
2022-09-29T04:52:56.399Z,4.38
2022-09-29T04:55:23.373Z,3.08
2022-09-29T04:57:50.273Z,3.50
2022-09-29T05:00:17.211Z,4.53
2022-09-29T05:02:48.934Z,3.45
2022-09-29T05:05:16.629Z,3.28
2022-09-29T05:07:44.533Z,2.58
2022-09-29T05:10:11.340Z,2.42
2022-09-29T05:12:38.071Z,2.42
2022-09-29T05:15:06.338Z,2.03
2022-09-29T05:17:33.881Z,1.98
2022-09-29T05:20:00.727Z,2.30
2022-09-29T05:22:27.455Z,1.95
2022-09-29T05:24:54.190Z,1.50
2022-09-29T05:27:22.349Z,1.67
2022-09-29T05:29:49.470Z,1.65
2022-09-29T05:32:16.447Z,1.80
2022-09-29T05:34:43.233Z,1.65
2022-09-29T05:37:10.223Z,2.10
2022-09-29T05:39:37.697Z,2.20
2022-09-29T05:42:11.366Z,1.88
2022-09-29T05:44:38.189Z,2.30
2022-09-29T05:47:04.965Z,2.47
2022-09-29T05:49:33.133Z,1.70
2022-09-29T05:52:00.227Z,2.13
2022-09-29T05:54:27.620Z,2.00
2022-09-29T05:56:56.067Z,1.77
2022-09-29T05:59:22.960Z,2.05
2022-09-29T06:01:49.755Z,1.73
2022-09-29T06:04:17.512Z,1.58
2022-09-29T06:06:44.585Z,1.55
2022-09-29T06:09:11.364Z,1.67
2022-09-29T06:11:38.176Z,1.85
2022-09-29T06:14:05.140Z,1.80
2022-09-29T06:16:33.485Z,1.52
2022-09-29T06:19:02.031Z,1.75
2022-09-29T06:21:30.599Z,1.77
2022-09-29T06:23:58.519Z,1.48
2022-09-29T06:26:26.998Z,2.03
2022-09-29T06:31:29.970Z,1.67
2022-09-29T06:33:58.931Z,1.55
2022-09-29T06:36:51.090Z,1.85
2022-09-29T06:39:17.953Z,1.67
2022-09-29T06:41:51.981Z,1.63
2022-09-29T06:44:18.971Z,1.38
2022-09-29T06:46:45.735Z,1.33
2022-09-29T06:49:15.402Z,1.52
2022-09-29T06:51:46.436Z,1.23
2022-09-29T06:54:15.265Z,1.42
2022-09-29T06:56:42.582Z,1.50
2022-09-29T06:59:09.587Z,1.80
2022-09-29T07:01:36.398Z,2.58
2022-09-29T07:04:03.298Z,2.03
2022-09-29T07:06:30.604Z,3.20
2022-09-29T07:08:58.931Z,2.17
2022-09-29T07:11:29.007Z,2.13
2022-09-29T07:13:55.890Z,1.70
2022-09-29T07:16:24.172Z,1.77
2022-09-29T07:18:52.010Z,1.58
2022-09-29T07:21:19.194Z,1.45
2022-09-29T07:23:47.010Z,1.50
2022-09-29T07:26:16.635Z,1.33
2022-09-29T07:28:44.560Z,1.35
2022-09-29T07:31:15.771Z,1.70
2022-09-29T07:33:44.183Z,1.95
2022-09-29T07:36:11.625Z,1.88
2022-09-29T07:38:38.471Z,1.38
2022-09-29T07:41:07.428Z,2.03
2022-09-29T07:43:34.731Z,1.80
2022-09-29T07:46:02.492Z,1.83
2022-09-29T07:48:31.845Z,2.63
2022-09-29T07:51:03.477Z,1.83
2022-09-29T07:53:31.178Z,2.47
2022-09-29T07:56:04.197Z,1.70
2022-09-29T07:58:32.574Z,2.08
2022-09-29T08:01:00.997Z,1.98
2022-09-29T08:03:30.097Z,1.83
2022-09-29T08:06:00.183Z,1.73
2022-09-29T08:08:27.341Z,2.38
2022-09-29T08:11:02.513Z,2.15
2022-09-29T08:13:30.525Z,2.25
2022-09-29T08:16:01.526Z,2.95
2022-09-29T08:18:29.912Z,3.90
2022-09-29T08:20:59.951Z,3.00
2022-09-29T08:23:31.826Z,2.95
2022-09-29T08:26:14.372Z,2.30
2022-09-29T08:28:42.383Z,2.20
2022-09-29T08:31:12.595Z,2.45
2022-09-29T08:33:39.827Z,2.95
2022-09-29T08:36:17.351Z,2.83
2022-09-29T08:38:45.905Z,2.95
2022-09-29T08:41:36.646Z,2.83
2022-09-29T08:44:33.798Z,2.97
2022-09-29T08:47:12.474Z,2.50
2022-09-29T08:49:52.718Z,3.53
2022-09-29T08:52:25.099Z,3.03
2022-09-29T08:55:09.844Z,2.55
2022-09-29T08:57:42.036Z,2.63
2022-09-29T09:00:14.215Z,3.17
2022-09-29T09:02:47.066Z,1.58
2022-09-29T09:05:28.198Z,2.28
2022-09-29T09:08:19.935Z,2.55
2022-09-29T09:10:56.166Z,1.90
2022-09-29T09:13:50.056Z,2.53
2022-09-29T09:16:37.666Z,1.77
2022-09-29T09:19:22.011Z,1.92
2022-09-29T09:21:59.205Z,1.95
2022-09-29T09:24:41.211Z,1.85
2022-09-29T09:27:15.546Z,1.67
2022-09-29T09:29:44.366Z,1.80
2022-09-29T09:32:13.186Z,1.80
2022-09-29T09:35:17.702Z,1.70
2022-09-29T09:37:48.839Z,1.20
2022-09-29T09:40:21.124Z,1.08
2022-09-29T09:42:53.941Z,1.45
2022-09-29T09:45:29.196Z,1.25
2022-09-29T09:48:22.842Z,1.33
2022-09-29T09:50:50.993Z,1.27
2022-09-29T09:53:33.472Z,0.90
2022-09-29T09:56:37.969Z,1.42
2022-09-29T09:59:18.494Z,1.30
2022-09-29T10:01:45.778Z,1.40
2022-09-29T10:04:13.874Z,1.27
2022-09-29T10:06:41.426Z,1.00
2022-09-29T10:09:15.179Z,1.00
2022-09-29T10:11:44.049Z,1.27
2022-09-29T10:14:26.122Z,1.40
2022-09-29T10:17:15.226Z,1.65
2022-09-29T10:19:57.475Z,0.90
2022-09-29T10:25:09.046Z,0.70
2022-09-29T10:27:40.177Z,0.70
2022-09-29T10:30:20.608Z,0.60
2022-09-29T10:32:47.786Z,1.10
2022-09-29T10:35:24.431Z,0.90
2022-09-29T10:38:01.936Z,1.10
2022-09-29T10:40:29.185Z,1.33
2022-09-29T10:42:57.084Z,0.60
2022-09-29T10:45:30.055Z,0.82
2022-09-29T10:47:59.606Z,0.60
2022-09-29T10:50:33.464Z,0.60
2022-09-29T10:53:21.580Z,0.65
2022-09-29T10:55:54.336Z,0.55
2022-09-29T10:58:44.675Z,0.30
2022-09-29T11:01:14.155Z,0.70
2022-09-29T11:04:06.322Z,0.50
2022-09-29T11:06:38.425Z,0.40
2022-09-29T11:09:29.895Z,0.40
2022-09-29T11:12:01.566Z,0.38
2022-09-29T11:14:39.530Z,0.40
2022-09-29T11:17:28.576Z,1.13
2022-09-29T11:20:02.156Z,0.50
2022-09-29T11:23:16.901Z,0.70
2022-09-29T11:26:25.719Z,0.50
2022-09-29T11:29:03.298Z,0.52
2022-09-29T11:31:42.965Z,0.60
2022-09-29T11:34:30.717Z,0.60
2022-09-29T11:37:06.686Z,0.80
2022-09-29T11:39:45.772Z,1.25
2022-09-29T11:42:48.655Z,0.70
2022-09-29T11:47:52.641Z,0.60
2022-09-29T11:50:31.035Z,0.70
2022-09-29T11:53:09.973Z,0.80
2022-09-29T11:55:37.242Z,1.35
2022-09-29T11:58:22.345Z,1.42
2022-09-29T12:01:02.116Z,0.88
2022-09-29T12:03:50.525Z,1.10
2022-09-29T12:06:39.523Z,1.50
2022-09-29T12:09:15.653Z,1.40
2022-09-29T12:12:24.076Z,1.00
2022-09-29T12:15:18.178Z,1.40
2022-09-29T12:17:50.011Z,1.55
2022-09-29T12:20:29.450Z,1.65
2022-09-29T12:23:05.749Z,1.80
2022-09-29T12:25:38.013Z,1.88
2022-09-29T12:28:16.269Z,1.70
2022-09-29T12:33:34.894Z,1.90
2022-09-29T12:36:33.383Z,1.50
2022-09-29T12:39:21.433Z,1.95
2022-09-29T12:42:27.288Z,1.80
2022-09-29T12:45:02.737Z,1.73
2022-09-29T12:47:45.001Z,1.38
2022-09-29T12:50:26.065Z,2.03
2022-09-29T12:53:16.457Z,1.40
2022-09-29T12:56:22.738Z,1.35
2022-09-29T12:58:53.488Z,1.48
2022-09-29T13:01:32.943Z,2.17
2022-09-29T13:04:04.163Z,1.27
2022-09-29T13:07:05.153Z,1.33
2022-09-29T13:09:57.320Z,1.10
2022-09-29T13:12:38.756Z,1.15
2022-09-29T13:15:26.801Z,1.30
2022-09-29T13:18:05.608Z,1.02
2022-09-29T13:21:02.947Z,1.38
2022-09-29T13:23:50.688Z,0.95
2022-09-29T13:26:31.619Z,0.90
2022-09-29T13:29:11.054Z,0.90
2022-09-29T13:31:39.774Z,2.08
2022-09-29T13:34:07.385Z,3.53
2022-09-29T13:36:44.073Z,1.98
2022-09-29T13:39:25.634Z,3.50
2022-09-29T13:41:55.917Z,2.60
2022-09-29T13:44:28.438Z,4.00
2022-09-29T13:46:57.038Z,1.73
2022-09-29T13:49:26.110Z,1.40
2022-09-29T13:52:11.858Z,1.40
2022-09-29T13:54:44.780Z,1.80
2022-09-29T13:57:25.345Z,1.92
2022-09-29T14:02:38.157Z,2.00
2022-09-29T14:05:24.236Z,2.13
2022-09-29T14:10:28.473Z,2.90
2022-09-29T14:13:09.084Z,1.58
2022-09-29T14:15:51.156Z,3.33
2022-09-29T14:21:00.424Z,2.22
2022-09-29T14:23:51.946Z,1.42
2022-09-29T14:26:46.739Z,1.75
2022-09-29T14:29:18.594Z,1.00
2022-09-29T14:31:52.915Z,1.38
2022-09-29T14:34:23.438Z,1.25
2022-09-29T14:36:53.898Z,2.42
2022-09-29T14:39:26.521Z,1.95
2022-09-29T14:41:54.371Z,1.45
2022-09-29T14:44:53.256Z,0.70
2022-09-29T14:47:48.573Z,0.85
2022-09-29T14:51:00.161Z,0.70
2022-09-29T14:53:50.221Z,0.70
2022-09-29T14:56:46.014Z,0.80
2022-09-29T14:59:40.121Z,0.73
2022-09-29T15:02:19.118Z,0.70
2022-09-29T15:04:46.738Z,0.90
2022-09-29T15:07:16.951Z,0.73
2022-09-29T15:09:50.848Z,1.33
2022-09-29T15:12:27.422Z,1.67
2022-09-29T15:14:57.734Z,1.80
2022-09-29T15:17:42.221Z,2.33
2022-09-29T15:20:41.277Z,1.58
2022-09-29T15:23:28.202Z,2.53
2022-09-29T15:28:38.349Z,7.35
2022-09-29T15:31:09.045Z,5.13
2022-09-29T15:33:38.938Z,3.10
2022-09-29T15:36:08.462Z,2.20
2022-09-29T15:38:38.537Z,2.33
2022-09-29T15:41:20.051Z,2.80
2022-09-29T15:43:52.635Z,2.97
2022-09-29T15:46:22.081Z,1.52
2022-09-29T15:49:04.281Z,1.70
2022-09-29T15:54:00.994Z,2.17
2022-09-29T15:56:31.491Z,1.85
2022-09-29T15:58:58.710Z,1.55
2022-09-29T16:01:25.654Z,1.88
2022-09-29T16:04:01.804Z,2.22
2022-09-29T16:06:31.872Z,1.95
2022-09-29T16:09:05.159Z,1.92
2022-09-29T16:11:36.060Z,2.15
2022-09-29T16:14:35.369Z,2.05
2022-09-29T16:17:02.313Z,3.58
2022-09-29T16:19:32.317Z,3.28
2022-09-29T16:22:02.780Z,1.80
2022-09-29T16:24:32.160Z,1.88
2022-09-29T16:26:59.564Z,1.88
2022-09-29T16:29:34.322Z,1.90
2022-09-29T16:32:33.546Z,1.90
2022-09-29T16:35:40.518Z,2.65
2022-09-29T16:38:21.198Z,1.73
2022-09-29T16:40:48.122Z,2.70
2022-09-29T16:43:33.548Z,2.22
2022-09-29T16:46:02.428Z,1.98
2022-09-29T16:48:32.219Z,2.75
2022-09-29T16:51:05.730Z,2.65
2022-09-29T16:53:35.427Z,3.22
2022-09-29T16:56:27.376Z,3.13
2022-09-29T16:59:21.132Z,2.78
2022-09-29T17:01:48.400Z,3.25
2022-09-29T17:04:15.409Z,2.65
2022-09-29T17:06:47.179Z,2.67
2022-09-29T17:09:25.337Z,2.30
2022-09-29T17:11:52.186Z,3.70
2022-09-29T17:14:19.013Z,4.97
2022-09-29T17:16:46.011Z,4.63
2022-09-29T17:19:12.920Z,4.13
2022-09-29T17:21:39.870Z,3.88
2022-09-29T17:24:06.655Z,3.72
2022-09-29T17:27:00.042Z,3.42
2022-09-29T17:29:26.850Z,3.67
2022-09-29T17:31:53.804Z,3.00
2022-09-29T17:34:29.064Z,3.35
2022-09-29T17:37:00.302Z,3.05
2022-09-29T17:39:27.825Z,2.50
2022-09-29T17:41:54.914Z,2.55
2022-09-29T17:44:21.639Z,3.08
2022-09-29T17:46:48.670Z,2.90
2022-09-29T17:49:17.942Z,2.88
2022-09-29T17:51:44.832Z,3.25
2022-09-29T17:54:11.755Z,3.20
2022-09-29T17:56:42.129Z,4.45
2022-09-29T17:59:10.314Z,12.65
2022-09-29T18:01:38.463Z,13.10
2022-09-29T18:04:07.985Z,10.27
2022-09-29T18:06:37.607Z,6.72
2022-09-29T18:09:17.668Z,6.15
2022-09-29T18:11:44.773Z,6.43
2022-09-29T18:14:11.620Z,8.60
2022-09-29T18:16:38.385Z,10.32
2022-09-29T18:19:16.933Z,8.93
2022-09-29T18:21:43.868Z,8.98
2022-09-29T18:24:10.624Z,7.05
2022-09-29T18:26:37.838Z,6.68
2022-09-29T18:29:16.153Z,5.82
2022-09-29T18:31:43.270Z,6.78
2022-09-29T18:36:47.075Z,5.57
2022-09-29T18:39:14.359Z,6.30
2022-09-29T18:41:41.359Z,5.68
2022-09-29T18:44:17.659Z,6.22
2022-09-29T18:46:44.736Z,6.38
2022-09-29T18:49:14.088Z,9.15
2022-09-29T18:51:41.343Z,9.63
2022-09-29T18:54:08.355Z,9.40
2022-09-29T18:56:35.281Z,10.18
2022-09-29T18:59:03.655Z,9.75
2022-09-29T19:01:30.591Z,9.98
2022-09-29T19:03:57.414Z,10.25
2022-09-29T19:06:24.605Z,10.15
2022-09-29T19:08:52.255Z,10.98
2022-09-29T19:11:24.945Z,13.63
2022-09-29T19:13:55.157Z,13.45
2022-09-29T19:16:23.458Z,11.52
2022-09-29T19:18:50.543Z,12.98
2022-09-29T19:21:17.303Z,11.52
2022-09-29T19:23:46.737Z,11.40
2022-09-29T19:26:19.910Z,10.77
2022-09-29T19:28:48.148Z,11.80
2022-09-29T19:31:19.455Z,12.15
2022-09-29T19:33:46.772Z,11.43
2022-09-29T19:36:17.767Z,12.13
2022-09-29T19:38:44.727Z,12.52
2022-09-29T19:41:20.422Z,10.80
2022-09-29T19:43:48.113Z,11.75
2022-09-29T19:46:16.324Z,11.30
2022-09-29T19:48:44.133Z,10.30
2022-09-29T19:51:35.485Z,11.93
2022-09-29T19:54:10.944Z,12.57
2022-09-29T19:56:42.636Z,11.82
2022-09-29T19:59:11.639Z,12.05
2022-09-29T20:01:38.536Z,16.35
2022-09-29T20:04:05.554Z,14.93
2022-09-29T20:06:36.017Z,15.00
2022-09-29T20:09:04.788Z,13.82
2022-09-29T20:11:33.494Z,14.85
2022-09-29T20:14:03.453Z,14.82
2022-09-29T20:16:40.232Z,14.30
2022-09-29T20:19:10.341Z,12.25
2022-09-29T20:21:40.396Z,11.30
2022-09-29T20:24:07.496Z,10.10
2022-09-29T20:26:34.237Z,10.40
2022-09-29T20:29:02.247Z,9.48
2022-09-29T20:31:31.195Z,9.70
2022-09-29T20:33:58.059Z,8.25
2022-09-29T20:36:24.933Z,8.02
2022-09-29T20:38:52.167Z,8.13
2022-09-29T20:41:18.936Z,7.63
2022-09-29T20:43:51.690Z,7.72
2022-09-29T20:46:18.827Z,7.78
2022-09-29T20:48:46.127Z,7.97
2022-09-29T20:51:17.205Z,8.00
2022-09-29T20:53:51.858Z,8.65
2022-09-29T20:56:19.081Z,9.50
2022-09-29T20:58:52.170Z,8.68
2022-09-29T21:01:24.851Z,9.32
2022-09-29T21:03:54.128Z,9.20
2022-09-29T21:06:22.214Z,8.95
2022-09-29T21:12:51.450Z,8.75
2022-09-29T21:15:18.214Z,7.07
2022-09-29T21:17:45.010Z,8.05
2022-09-29T21:20:11.822Z,6.38
2022-09-29T21:22:38.786Z,7.10
2022-09-29T21:25:06.016Z,7.30
2022-09-29T21:27:34.752Z,5.70
2022-09-29T21:30:03.000Z,6.72
2022-09-29T21:32:29.777Z,5.30
2022-09-29T21:34:57.324Z,5.05
2022-09-29T21:37:24.090Z,5.82
2022-09-29T21:39:50.858Z,5.70
2022-09-29T21:42:17.574Z,6.78
2022-09-29T21:44:45.243Z,6.05
2022-09-29T21:47:12.986Z,5.47
2022-09-29T21:49:39.859Z,4.88
2022-09-29T21:52:06.782Z,5.03
2022-09-29T21:54:37.639Z,4.93
2022-09-29T21:57:06.919Z,4.05
2022-09-29T21:59:34.080Z,4.00
2022-09-29T22:02:01.335Z,4.00
2022-09-29T22:04:28.370Z,4.70
2022-09-29T22:06:55.185Z,5.22
2022-09-29T22:09:22.788Z,5.40
2022-09-29T22:11:50.460Z,5.38
2022-09-29T22:14:18.090Z,4.50
2022-09-29T22:16:44.990Z,4.68
2022-09-29T22:19:28.455Z,4.90
2022-09-29T22:21:55.357Z,4.78
2022-09-29T22:24:24.023Z,5.60
2022-09-29T22:26:51.038Z,5.05
2022-09-29T22:29:17.829Z,5.13
2022-09-29T22:31:44.722Z,4.80
2022-09-29T22:34:11.540Z,5.25
2022-09-29T22:36:38.415Z,5.18
2022-09-29T22:39:08.671Z,4.78
2022-09-29T22:41:39.712Z,4.57
2022-09-29T22:44:07.918Z,4.67
2022-09-29T22:46:35.042Z,5.43
2022-09-29T22:49:02.293Z,3.97
2022-09-29T22:51:29.034Z,4.25
2022-09-29T22:53:59.640Z,4.68
2022-09-29T22:56:29.032Z,4.40
2022-09-29T22:59:01.690Z,4.07
2022-09-29T23:01:29.087Z,4.50
2022-09-29T23:03:56.245Z,3.65
2022-09-29T23:06:23.072Z,4.60
2022-09-29T23:08:49.915Z,3.97
2022-09-29T23:11:18.644Z,3.90
2022-09-29T23:13:45.718Z,4.57
2022-09-29T23:16:14.168Z,4.05
2022-09-29T23:18:44.277Z,4.22
2022-09-29T23:21:13.617Z,3.80
2022-09-29T23:23:40.525Z,4.03
2022-09-29T23:26:07.720Z,3.85
2022-09-29T23:28:34.815Z,4.50
2022-09-29T23:31:08.533Z,4.10
2022-09-29T23:33:35.733Z,4.05
2022-09-29T23:36:11.374Z,4.18
2022-09-29T23:39:01.943Z,4.40
2022-09-29T23:41:30.401Z,4.68
2022-09-29T23:43:59.540Z,4.80
2022-09-29T23:46:31.426Z,3.97
2022-09-29T23:49:04.435Z,4.85
2022-09-29T23:51:34.541Z,3.60
2022-09-29T23:54:01.392Z,4.20
2022-09-29T23:56:28.758Z,4.70
2022-09-29T23:58:55.521Z,4.80
